createdAt,value
2018-08-10T00:00:40.598Z,11.30
2018-08-10T00:01:40.585Z,12.20
2018-08-10T00:02:40.573Z,13.00
2018-08-10T00:03:40.557Z,14.10
2018-08-10T00:04:40.546Z,13.80
2018-08-10T00:05:40.533Z,13.60
2018-08-10T00:06:40.520Z,13.90
2018-08-10T00:07:40.505Z,13.80
2018-08-10T00:08:40.495Z,13.30
2018-08-10T00:09:40.484Z,13.10
2018-08-10T00:10:40.468Z,11.80
2018-08-10T00:11:40.457Z,9.70
2018-08-10T00:12:40.443Z,7.30
2018-08-10T00:13:40.433Z,7.40
2018-08-10T00:14:40.418Z,7.60
2018-08-10T00:15:40.409Z,6.70
2018-08-10T00:16:40.394Z,4.90
2018-08-10T00:17:40.385Z,4.20
2018-08-10T00:18:40.371Z,3.40
2018-08-10T00:19:40.354Z,2.80
2018-08-10T00:20:40.343Z,3.10
2018-08-10T00:21:40.329Z,2.10
2018-08-10T00:22:40.319Z,2.10
2018-08-10T00:23:40.308Z,2.70
2018-08-10T00:24:40.291Z,2.40
2018-08-10T00:25:40.282Z,1.50
2018-08-10T00:26:40.280Z,2.10
2018-08-10T00:27:40.249Z,1.90
2018-08-10T00:28:40.236Z,1.90
2018-08-10T00:29:40.225Z,2.60
2018-08-10T00:30:40.212Z,2.10
2018-08-10T00:31:40.198Z,1.70
2018-08-10T00:32:40.188Z,1.60
2018-08-10T00:33:40.172Z,2.80
2018-08-10T00:34:40.162Z,2.10
2018-08-10T00:35:40.150Z,2.90
2018-08-10T00:36:40.133Z,2.00
2018-08-10T00:37:40.123Z,2.20
2018-08-10T00:38:40.107Z,2.30
2018-08-10T00:39:40.094Z,2.50
2018-08-10T00:40:40.082Z,1.80
2018-08-10T00:41:40.067Z,1.50
2018-08-10T00:42:40.056Z,1.50
2018-08-10T00:43:40.042Z,1.70
2018-08-10T00:44:40.036Z,1.40
2018-08-10T00:45:40.019Z,2.30
2018-08-10T00:46:40.003Z,2.00
2018-08-10T00:47:39.988Z,3.10
2018-08-10T00:48:39.977Z,2.50
2018-08-10T00:49:39.963Z,2.10
2018-08-10T00:50:39.951Z,2.50
2018-08-10T00:51:39.940Z,1.50
2018-08-10T00:52:39.929Z,2.10
2018-08-10T00:53:39.915Z,2.90
2018-08-10T00:54:39.902Z,1.60
2018-08-10T00:55:39.888Z,1.90
2018-08-10T00:56:39.873Z,1.70
2018-08-10T00:57:39.860Z,2.00
2018-08-10T00:58:39.849Z,2.10
2018-08-10T00:59:39.835Z,2.30
2018-08-10T01:00:39.818Z,1.70
2018-08-10T01:01:39.810Z,4.10
2018-08-10T01:02:39.793Z,1.40
2018-08-10T01:03:39.782Z,1.80
2018-08-10T01:04:39.769Z,2.20
2018-08-10T01:05:39.754Z,1.80
2018-08-10T01:06:39.749Z,3.60
2018-08-10T01:07:39.727Z,1.40
2018-08-10T01:08:39.715Z,1.90
2018-08-10T01:09:39.704Z,2.70
2018-08-10T01:10:39.690Z,1.90
2018-08-10T01:11:39.675Z,2.10
2018-08-10T01:12:39.663Z,1.70
2018-08-10T01:13:39.649Z,1.90
2018-08-10T01:14:39.638Z,3.00
2018-08-10T01:15:39.622Z,4.30
2018-08-10T01:16:39.607Z,1.80
2018-08-10T01:17:39.597Z,2.30
2018-08-10T01:18:39.593Z,2.40
2018-08-10T01:19:39.572Z,2.80
2018-08-10T01:20:39.565Z,2.50
2018-08-10T01:21:39.547Z,2.90
2018-08-10T01:22:39.529Z,1.80
2018-08-10T01:23:39.516Z,2.40
2018-08-10T01:24:39.503Z,2.50
2018-08-10T01:25:39.491Z,2.10
2018-08-10T01:26:39.480Z,2.00
2018-08-10T01:27:39.460Z,2.10
2018-08-10T01:28:39.520Z,3.30
2018-08-10T01:29:39.434Z,3.70
2018-08-10T01:30:39.421Z,2.70
2018-08-10T01:31:39.411Z,3.80
2018-08-10T01:32:39.397Z,3.60
2018-08-10T01:33:39.397Z,3.50
2018-08-10T01:34:39.369Z,2.70
2018-08-10T01:35:39.353Z,3.80
2018-08-10T01:36:39.340Z,3.00
2018-08-10T01:37:39.325Z,3.00
2018-08-10T01:38:39.316Z,3.10
2018-08-10T01:39:39.296Z,3.10
2018-08-10T01:40:39.287Z,5.40
2018-08-10T01:41:39.276Z,2.50
2018-08-10T01:42:39.258Z,2.70
2018-08-10T01:43:39.244Z,2.90
2018-08-10T01:44:39.232Z,3.70
2018-08-10T01:45:39.217Z,2.90
2018-08-10T01:46:39.217Z,5.10
2018-08-10T01:47:39.192Z,3.60
2018-08-10T01:48:39.177Z,3.10
2018-08-10T01:49:39.168Z,5.80
2018-08-10T01:50:39.152Z,3.70
2018-08-10T01:51:39.138Z,3.80
2018-08-10T01:52:39.125Z,3.90
2018-08-10T01:53:39.109Z,4.00
2018-08-10T01:54:39.098Z,3.70
2018-08-10T01:55:39.086Z,4.30
2018-08-10T01:56:39.070Z,3.80
2018-08-10T01:57:39.061Z,3.20
2018-08-10T01:58:39.045Z,4.10
2018-08-10T01:59:39.027Z,4.50
2018-08-10T02:00:39.016Z,4.00
2018-08-10T02:01:39.003Z,4.90
2018-08-10T02:02:38.990Z,4.50
2018-08-10T02:03:38.978Z,4.60
2018-08-10T02:04:38.963Z,4.50
2018-08-10T02:05:38.950Z,5.30
2018-08-10T02:06:38.935Z,4.50
2018-08-10T02:07:38.927Z,3.50
2018-08-10T02:08:38.908Z,5.20
2018-08-10T02:09:38.896Z,3.80
2018-08-10T02:10:38.882Z,3.70
2018-08-10T02:11:38.874Z,3.40
2018-08-10T02:12:38.856Z,4.80
2018-08-10T02:13:38.845Z,4.10
2018-08-10T02:14:38.832Z,5.40
2018-08-10T02:15:38.815Z,4.20
2018-08-10T02:16:38.800Z,4.80
2018-08-10T02:17:38.787Z,5.40
2018-08-10T02:18:38.774Z,5.20
2018-08-10T02:19:38.761Z,5.00
2018-08-10T02:20:38.746Z,5.10
2018-08-10T02:21:38.742Z,5.30
2018-08-10T02:22:38.720Z,5.00
2018-08-10T02:23:38.708Z,4.90
2018-08-10T02:24:38.740Z,3.60
2018-08-10T02:25:38.683Z,5.40
2018-08-10T02:26:38.667Z,4.30
2018-08-10T02:27:38.654Z,3.40
2018-08-10T02:28:38.640Z,5.40
2018-08-10T02:29:38.634Z,7.50
2018-08-10T02:30:38.612Z,5.10
2018-08-10T02:31:38.611Z,5.80
2018-08-10T02:32:38.587Z,4.80
2018-08-10T02:33:38.571Z,7.60
2018-08-10T02:34:38.559Z,4.90
2018-08-10T02:35:38.545Z,4.90
2018-08-10T02:36:38.532Z,6.50
2018-08-10T02:37:38.522Z,6.70
2018-08-10T02:38:38.507Z,5.40
2018-08-10T02:39:38.492Z,5.90
2018-08-10T02:40:38.478Z,6.70
2018-08-10T02:41:38.464Z,6.90
2018-08-10T02:42:38.450Z,5.10
2018-08-10T02:43:38.441Z,5.30
2018-08-10T02:44:38.424Z,7.60
2018-08-10T02:45:38.410Z,6.50
2018-08-10T02:46:38.398Z,6.00
2018-08-10T02:47:38.382Z,4.80
2018-08-10T02:48:38.369Z,4.90
2018-08-10T02:49:38.355Z,6.90
2018-08-10T02:50:38.342Z,7.10
2018-08-10T02:51:38.331Z,4.80
2018-08-10T02:52:38.316Z,7.00
2018-08-10T02:53:38.302Z,4.80
2018-08-10T02:54:38.289Z,5.10
2018-08-10T02:55:38.280Z,3.60
2018-08-10T02:56:38.260Z,6.80
2018-08-10T02:57:38.303Z,4.50
2018-08-10T02:58:38.235Z,4.60
2018-08-10T02:59:38.219Z,4.70
2018-08-10T03:00:38.206Z,4.80
2018-08-10T03:01:38.193Z,5.40
2018-08-10T03:02:38.181Z,5.10
2018-08-10T03:03:38.166Z,5.40
2018-08-10T03:04:38.154Z,4.40
2018-08-10T03:05:38.142Z,5.70
2018-08-10T03:06:38.124Z,5.40
2018-08-10T03:07:38.111Z,6.10
2018-08-10T03:08:38.098Z,7.00
2018-08-10T03:09:38.083Z,3.90
2018-08-10T03:10:38.074Z,8.30
2018-08-10T03:11:38.060Z,4.40
2018-08-10T03:12:38.045Z,4.70
2018-08-10T03:13:38.030Z,5.70
2018-08-10T03:14:38.015Z,3.80
2018-08-10T03:15:38.000Z,3.30
2018-08-10T03:16:37.985Z,5.40
2018-08-10T03:17:37.972Z,4.60
2018-08-10T03:18:37.964Z,5.20
2018-08-10T03:19:37.947Z,6.00
2018-08-10T03:20:37.937Z,5.90
2018-08-10T03:21:37.919Z,5.80
2018-08-10T03:22:37.909Z,4.90
2018-08-10T03:23:37.896Z,7.20
2018-08-10T03:24:37.884Z,3.80
2018-08-10T03:25:37.865Z,5.00
2018-08-10T03:26:37.852Z,4.10
2018-08-10T03:27:37.836Z,5.50
2018-08-10T03:28:37.822Z,7.60
2018-08-10T03:29:37.808Z,4.10
2018-08-10T03:30:37.801Z,4.50
2018-08-10T03:31:37.783Z,3.50
2018-08-10T03:32:37.768Z,4.70
2018-08-10T03:33:37.756Z,5.30
2018-08-10T03:34:37.740Z,6.30
2018-08-10T03:35:37.725Z,3.40
2018-08-10T03:36:37.712Z,5.40
2018-08-10T03:37:37.701Z,8.10
2018-08-10T03:38:37.689Z,4.90
2018-08-10T03:39:37.670Z,4.80
2018-08-10T03:40:37.658Z,3.30
2018-08-10T03:41:37.644Z,5.20
2018-08-10T03:42:37.629Z,6.40
2018-08-10T03:43:37.617Z,4.80
2018-08-10T03:44:37.602Z,5.90
2018-08-10T03:45:37.590Z,7.00
2018-08-10T03:46:37.577Z,5.70
2018-08-10T03:47:37.559Z,4.60
2018-08-10T03:48:37.546Z,5.40
2018-08-10T03:49:37.532Z,4.30
2018-08-10T03:50:37.517Z,4.60
2018-08-10T03:51:37.502Z,4.20
2018-08-10T03:52:37.487Z,5.50
2018-08-10T03:53:37.475Z,3.30
2018-08-10T03:54:37.460Z,3.80
2018-08-10T03:55:37.449Z,3.50
2018-08-10T03:56:37.433Z,5.60
2018-08-10T03:57:37.419Z,4.60
2018-08-10T03:58:37.408Z,3.80
2018-08-10T03:59:37.390Z,5.20
2018-08-10T04:00:37.381Z,5.00
2018-08-10T04:01:37.363Z,4.30
2018-08-10T04:02:37.348Z,3.90
2018-08-10T04:03:37.333Z,4.90
2018-08-10T04:04:37.323Z,3.40
2018-08-10T04:05:37.308Z,7.40
2018-08-10T04:06:37.296Z,4.50
2018-08-10T04:07:37.281Z,6.70
2018-08-10T04:08:37.266Z,5.30
2018-08-10T04:09:37.259Z,4.30
2018-08-10T04:10:37.243Z,7.30
2018-08-10T04:11:37.223Z,4.30
2018-08-10T04:12:37.209Z,4.80
2018-08-10T04:13:37.196Z,3.80
2018-08-10T04:14:37.187Z,3.90
2018-08-10T04:15:37.169Z,4.20
2018-08-10T04:16:37.154Z,4.60
2018-08-10T04:17:37.138Z,5.20
2018-08-10T04:18:37.128Z,4.10
2018-08-10T04:19:37.112Z,4.70
2018-08-10T04:20:37.101Z,7.00
2018-08-10T04:21:37.084Z,5.80
2018-08-10T04:22:37.071Z,4.80
2018-08-10T04:23:37.056Z,5.50
2018-08-10T04:24:37.045Z,4.50
2018-08-10T04:25:37.031Z,4.40
2018-08-10T04:26:37.017Z,3.60
2018-08-10T04:27:36.999Z,4.40
2018-08-10T04:28:36.986Z,5.50
2018-08-10T04:29:37.050Z,6.20
2018-08-10T04:30:36.957Z,4.40
2018-08-10T04:31:36.951Z,5.30
2018-08-10T04:32:36.933Z,6.40
2018-08-10T04:33:36.914Z,4.40
2018-08-10T04:34:36.899Z,6.50
2018-08-10T04:35:36.884Z,10.00
2018-08-10T04:36:36.872Z,6.10
2018-08-10T04:37:36.859Z,6.50
2018-08-10T04:38:36.865Z,5.20
2018-08-10T04:39:36.828Z,4.20
2018-08-10T04:40:36.818Z,5.10
2018-08-10T04:41:36.810Z,6.50
2018-08-10T04:42:36.789Z,4.80
2018-08-10T04:43:36.777Z,5.50
2018-08-10T04:44:36.759Z,6.70
2018-08-10T04:45:36.750Z,7.70
2018-08-10T04:46:36.732Z,6.80
2018-08-10T04:47:36.717Z,5.80
2018-08-10T04:48:36.705Z,7.50
2018-08-10T04:49:36.690Z,5.60
2018-08-10T04:50:36.675Z,6.20
2018-08-10T04:51:36.667Z,7.20
2018-08-10T04:52:36.648Z,6.10
2018-08-10T04:53:36.636Z,5.70
2018-08-10T04:54:36.620Z,6.20
2018-08-10T04:55:36.608Z,6.10
2018-08-10T04:56:36.592Z,5.70
2018-08-10T04:57:36.580Z,4.60
2018-08-10T04:58:36.564Z,4.30
2018-08-10T04:59:36.551Z,7.20
2018-08-10T05:00:36.539Z,5.60
2018-08-10T05:01:36.524Z,8.00
2018-08-10T05:02:36.509Z,8.20
2018-08-10T05:03:36.553Z,7.40
2018-08-10T05:04:36.479Z,4.70
2018-08-10T05:05:36.466Z,6.90
2018-08-10T05:06:36.454Z,4.00
2018-08-10T05:07:36.442Z,5.70
2018-08-10T05:08:36.428Z,5.90
2018-08-10T05:09:36.419Z,5.40
2018-08-10T05:10:36.405Z,5.90
2018-08-10T05:11:36.390Z,5.70
2018-08-10T05:12:36.369Z,6.40
2018-08-10T05:13:36.354Z,5.50
2018-08-10T05:14:36.345Z,6.90
2018-08-10T05:15:36.374Z,6.20
2018-08-10T05:16:36.312Z,6.70
2018-08-10T05:17:36.306Z,6.30
2018-08-10T05:18:36.284Z,8.10
2018-08-10T05:19:36.271Z,6.70
2018-08-10T05:20:36.262Z,5.50
2018-08-10T05:21:36.245Z,6.40
2018-08-10T05:22:36.234Z,5.00
2018-08-10T05:23:36.226Z,6.80
2018-08-10T05:24:36.206Z,5.70
2018-08-10T05:25:36.193Z,8.00
2018-08-10T05:26:36.175Z,7.00
2018-08-10T05:27:36.163Z,7.60
2018-08-10T05:28:36.153Z,6.40
2018-08-10T05:29:36.139Z,5.80
2018-08-10T05:30:36.121Z,9.80
2018-08-10T05:31:36.113Z,9.60
2018-08-10T05:32:36.096Z,7.80
2018-08-10T05:33:36.079Z,6.70
2018-08-10T05:34:36.066Z,6.20
2018-08-10T05:35:36.055Z,5.80
2018-08-10T05:36:36.037Z,5.50
2018-08-10T05:37:36.025Z,6.00
2018-08-10T05:38:36.009Z,9.90
2018-08-10T05:39:36.000Z,7.60
2018-08-10T05:40:35.983Z,5.80
2018-08-10T05:41:35.970Z,6.40
2018-08-10T05:42:35.963Z,9.60
2018-08-10T05:43:35.940Z,8.10
2018-08-10T05:44:35.925Z,7.90
2018-08-10T05:45:35.913Z,7.80
2018-08-10T05:46:35.901Z,7.60
2018-08-10T05:47:35.888Z,8.00
2018-08-10T05:48:35.874Z,6.30
2018-08-10T05:49:35.858Z,6.70
2018-08-10T05:50:35.852Z,8.70
2018-08-10T05:51:35.832Z,8.10
2018-08-10T05:52:35.920Z,6.50
2018-08-10T05:53:35.809Z,5.80
2018-08-10T05:54:35.795Z,7.90
2018-08-10T05:55:35.775Z,9.80
2018-08-10T05:56:35.767Z,9.00
2018-08-10T05:57:35.815Z,8.50
2018-08-10T05:58:35.734Z,6.20
2018-08-10T05:59:35.724Z,6.20
2018-08-10T06:00:35.714Z,6.50
2018-08-10T06:01:35.694Z,6.40
2018-08-10T06:02:35.682Z,6.90
2018-08-10T06:03:35.705Z,5.90
2018-08-10T06:04:35.655Z,8.60
2018-08-10T06:05:35.642Z,4.90
2018-08-10T06:06:35.625Z,6.00
2018-08-10T06:07:35.618Z,6.30
2018-08-10T06:08:35.599Z,7.50
2018-08-10T06:09:35.586Z,8.30
2018-08-10T06:10:35.575Z,7.00
2018-08-10T06:11:35.560Z,5.40
2018-08-10T06:12:35.542Z,6.00
2018-08-10T06:13:35.530Z,7.20
2018-08-10T06:14:35.517Z,6.50
2018-08-10T06:15:35.579Z,6.70
2018-08-10T06:16:35.493Z,6.10
2018-08-10T06:17:35.479Z,5.80
2018-08-10T06:18:35.468Z,9.10
2018-08-10T06:19:35.570Z,5.50
2018-08-10T06:20:35.441Z,5.90
2018-08-10T06:21:35.484Z,6.20
2018-08-10T06:22:35.410Z,5.60
2018-08-10T06:23:35.396Z,5.90
2018-08-10T06:24:35.383Z,7.80
2018-08-10T06:25:35.373Z,8.60
2018-08-10T06:26:35.357Z,7.00
2018-08-10T06:27:35.360Z,6.20
2018-08-10T06:28:35.332Z,6.10
2018-08-10T06:29:35.319Z,5.90
2018-08-10T06:30:35.314Z,8.00
2018-08-10T06:31:35.291Z,4.80
2018-08-10T06:32:35.283Z,7.00
2018-08-10T06:33:35.273Z,3.60
2018-08-10T06:34:35.257Z,6.30
2018-08-10T06:35:35.242Z,6.40
2018-08-10T06:36:35.226Z,4.30
2018-08-10T06:37:35.217Z,6.20
2018-08-10T06:38:35.209Z,6.30
2018-08-10T06:39:35.185Z,5.10
2018-08-10T06:40:35.173Z,4.80
2018-08-10T06:41:35.165Z,4.90
2018-08-10T06:42:35.147Z,4.60
2018-08-10T06:43:35.139Z,3.90
2018-08-10T06:44:35.122Z,5.60
2018-08-10T06:45:35.110Z,5.00
2018-08-10T06:46:35.097Z,5.40
2018-08-10T06:47:35.087Z,4.60
2018-08-10T06:48:35.077Z,4.50
2018-08-10T06:49:35.058Z,5.80
2018-08-10T06:50:35.052Z,5.00
2018-08-10T06:51:35.035Z,4.10
2018-08-10T06:52:35.018Z,4.70
2018-08-10T06:53:35.007Z,3.90
2018-08-10T06:54:35.003Z,3.70
2018-08-10T06:55:35.034Z,3.90
2018-08-10T06:56:34.969Z,4.30
2018-08-10T06:57:34.956Z,5.00
2018-08-10T06:58:34.947Z,3.90
2018-08-10T06:59:34.930Z,6.20
2018-08-10T07:00:34.950Z,6.20
2018-08-10T07:01:35.015Z,6.90
2018-08-10T07:02:34.893Z,5.00
2018-08-10T07:03:34.885Z,5.10
2018-08-10T07:04:34.868Z,5.90
2018-08-10T07:05:34.856Z,4.80
2018-08-10T07:06:34.848Z,5.70
2018-08-10T07:07:34.892Z,5.70
2018-08-10T07:08:34.822Z,4.50
2018-08-10T07:09:34.818Z,4.20
2018-08-10T07:10:34.798Z,7.50
2018-08-10T07:11:34.780Z,5.90
2018-08-10T07:12:34.769Z,4.50
2018-08-10T07:13:34.778Z,4.00
2018-08-10T07:14:34.746Z,5.50
2018-08-10T07:15:34.733Z,5.90
2018-08-10T07:16:34.721Z,4.10
2018-08-10T07:17:34.711Z,6.40
2018-08-10T07:18:34.700Z,4.80
2018-08-10T07:19:34.686Z,4.20
2018-08-10T07:20:34.672Z,5.10
2018-08-10T07:21:34.661Z,4.60
2018-08-10T07:22:34.654Z,7.00
2018-08-10T07:23:34.636Z,3.70
2018-08-10T07:24:34.633Z,4.30
2018-08-10T07:25:34.610Z,4.80
2018-08-10T07:26:34.603Z,7.00
2018-08-10T07:27:34.589Z,5.50
2018-08-10T07:28:34.577Z,4.10
2018-08-10T07:29:34.890Z,7.80
2018-08-10T07:30:34.878Z,9.90
2018-08-10T07:31:34.540Z,4.70
2018-08-10T07:32:34.541Z,4.50
2018-08-10T07:33:34.514Z,3.90
2018-08-10T07:34:34.507Z,5.70
2018-08-10T07:35:34.824Z,3.70
2018-08-10T07:36:34.480Z,7.00
2018-08-10T07:37:34.470Z,4.80
2018-08-10T07:38:34.521Z,4.50
2018-08-10T07:39:34.452Z,5.00
2018-08-10T07:40:34.440Z,4.10
2018-08-10T07:41:34.432Z,5.10
2018-08-10T07:42:34.425Z,4.90
2018-08-10T07:43:34.472Z,5.10
2018-08-10T07:44:34.419Z,4.20
2018-08-10T07:45:34.415Z,7.90
2018-08-10T07:46:34.498Z,4.10
2018-08-10T07:47:34.383Z,4.10
2018-08-10T07:48:34.381Z,3.10
2018-08-10T07:49:34.370Z,3.30
2018-08-10T07:50:34.364Z,5.80
2018-08-10T07:51:34.354Z,6.20
2018-08-10T07:52:34.348Z,4.50
2018-08-10T07:53:34.356Z,3.40
2018-08-10T07:54:34.340Z,4.10
2018-08-10T07:55:34.331Z,4.00
2018-08-10T07:56:34.332Z,3.60
2018-08-10T07:57:34.322Z,3.20
2018-08-10T07:58:34.318Z,4.20
2018-08-10T07:59:34.312Z,3.50
2018-08-10T08:00:34.309Z,3.10
2018-08-10T08:01:34.304Z,3.50
2018-08-10T08:02:34.311Z,3.30
2018-08-10T08:03:34.297Z,3.20
2018-08-10T08:04:34.294Z,3.80
2018-08-10T08:05:34.294Z,3.10
2018-08-10T08:06:34.289Z,3.20
2018-08-10T08:07:34.287Z,3.50
2018-08-10T08:08:34.283Z,2.30
2018-08-10T08:09:34.287Z,4.50
2018-08-10T08:10:34.356Z,2.90
2018-08-10T08:11:34.286Z,2.80
2018-08-10T08:12:34.291Z,2.90
2018-08-10T08:13:34.293Z,3.70
2018-08-10T08:14:34.278Z,5.40
2018-08-10T08:15:34.273Z,4.60
2018-08-10T08:16:34.275Z,3.40
2018-08-10T08:17:34.283Z,6.30
2018-08-10T08:18:34.281Z,3.10
2018-08-10T08:19:34.371Z,3.70
2018-08-10T08:20:34.272Z,3.00
2018-08-10T08:21:34.269Z,6.40
2018-08-10T08:22:34.267Z,3.80
2018-08-10T08:23:34.263Z,3.10
2018-08-10T08:24:34.261Z,4.10
2018-08-10T08:25:34.259Z,3.10
2018-08-10T08:26:34.255Z,5.30
2018-08-10T08:27:34.253Z,4.80
2018-08-10T08:28:34.249Z,6.40
2018-08-10T08:29:34.247Z,3.70
2018-08-10T08:30:34.313Z,5.10
2018-08-10T08:31:34.254Z,3.60
2018-08-10T08:32:34.243Z,4.70
2018-08-10T08:33:34.245Z,4.40
2018-08-10T08:34:34.321Z,5.00
2018-08-10T08:35:34.243Z,5.60
2018-08-10T08:36:34.239Z,4.20
2018-08-10T08:37:34.254Z,7.80
2018-08-10T08:38:34.246Z,3.90
2018-08-10T08:39:34.242Z,4.80
2018-08-10T08:40:34.241Z,6.10
2018-08-10T08:41:34.243Z,4.70
2018-08-10T08:42:34.245Z,5.10
2018-08-10T08:43:34.251Z,4.60
2018-08-10T08:44:34.245Z,3.60
2018-08-10T08:45:34.398Z,4.10
2018-08-10T08:46:34.589Z,5.40
2018-08-10T08:47:34.250Z,3.30
2018-08-10T08:48:34.252Z,5.20
2018-08-10T08:49:34.256Z,4.20
2018-08-10T08:50:34.258Z,3.50
2018-08-10T08:51:34.256Z,4.60
2018-08-10T08:52:34.259Z,3.90
2018-08-10T08:53:34.256Z,3.80
2018-08-10T08:54:34.260Z,3.80
2018-08-10T08:55:34.258Z,3.80
2018-08-10T08:56:34.260Z,3.70
2018-08-10T08:57:34.259Z,3.60
2018-08-10T08:58:34.258Z,3.70
2018-08-10T08:59:34.258Z,3.20
2018-08-10T09:00:34.264Z,3.50
2018-08-10T09:01:34.269Z,4.90
2018-08-10T09:02:34.258Z,3.90
2018-08-10T09:03:34.260Z,3.80
2018-08-10T09:04:34.257Z,3.10
2018-08-10T09:05:34.259Z,3.50
2018-08-10T09:06:34.283Z,4.20
2018-08-10T09:07:34.319Z,5.00
2018-08-10T09:08:34.262Z,4.00
2018-08-10T09:09:34.264Z,5.40
2018-08-10T09:10:34.258Z,5.80
2018-08-10T09:11:34.263Z,5.80
2018-08-10T09:12:34.258Z,6.40
2018-08-10T09:13:34.295Z,4.70
2018-08-10T09:14:34.252Z,6.40
2018-08-10T09:15:34.252Z,4.40
2018-08-10T09:16:34.249Z,4.70
2018-08-10T09:17:34.337Z,6.50
2018-08-10T09:18:34.240Z,6.20
2018-08-10T09:19:34.246Z,5.80
2018-08-10T09:20:34.232Z,4.40
2018-08-10T09:21:34.229Z,7.10
2018-08-10T09:22:34.236Z,4.90
2018-08-10T09:23:34.219Z,5.40
2018-08-10T09:24:34.216Z,4.20
2018-08-10T09:25:34.209Z,6.70
2018-08-10T09:26:34.209Z,6.30
2018-08-10T09:27:34.202Z,4.40
2018-08-10T09:28:34.194Z,5.80
2018-08-10T09:29:34.189Z,7.10
2018-08-10T09:30:34.187Z,6.30
2018-08-10T09:31:34.176Z,4.10
2018-08-10T09:32:34.171Z,4.80
2018-08-10T09:33:34.175Z,7.50
2018-08-10T09:34:34.159Z,5.70
2018-08-10T09:35:34.154Z,5.40
2018-08-10T09:36:34.146Z,5.30
2018-08-10T09:37:34.138Z,5.50
2018-08-10T09:38:34.198Z,8.50
2018-08-10T09:39:34.127Z,6.40
2018-08-10T09:40:34.118Z,7.30
2018-08-10T09:41:34.120Z,6.70
2018-08-10T09:42:34.105Z,7.80
2018-08-10T09:43:34.094Z,5.70
2018-08-10T09:44:34.085Z,6.70
2018-08-10T09:45:34.081Z,6.70
2018-08-10T09:46:34.070Z,8.10
2018-08-10T09:47:34.068Z,7.50
2018-08-10T09:48:34.056Z,7.00
2018-08-10T09:49:34.046Z,5.10
2018-08-10T09:50:34.041Z,8.70
2018-08-10T09:51:34.031Z,6.90
2018-08-10T09:52:34.018Z,7.30
2018-08-10T09:53:34.010Z,8.50
2018-08-10T09:54:34.005Z,6.30
2018-08-10T09:55:33.991Z,8.80
2018-08-10T09:56:33.987Z,7.40
2018-08-10T09:57:33.974Z,10.30
2018-08-10T09:58:33.967Z,8.40
2018-08-10T09:59:33.961Z,7.80
2018-08-10T10:00:33.948Z,6.70
2018-08-10T10:01:33.938Z,8.50
2018-08-10T10:02:33.932Z,6.90
2018-08-10T10:03:33.919Z,7.90
2018-08-10T10:04:33.911Z,7.30
2018-08-10T10:05:33.901Z,9.20
2018-08-10T10:06:33.941Z,7.20
2018-08-10T10:07:33.895Z,5.70
2018-08-10T10:08:33.882Z,7.40
2018-08-10T10:09:33.874Z,4.40
2018-08-10T10:10:33.865Z,4.70
2018-08-10T10:11:33.853Z,7.00
2018-08-10T10:12:33.856Z,5.60
2018-08-10T10:13:33.837Z,5.50
2018-08-10T10:14:33.832Z,6.00
2018-08-10T10:15:33.832Z,5.90
2018-08-10T10:16:33.812Z,3.80
2018-08-10T10:17:33.949Z,6.00
2018-08-10T10:18:33.800Z,8.80
2018-08-10T10:19:33.786Z,8.10
2018-08-10T10:20:33.778Z,6.10
2018-08-10T10:21:33.772Z,4.00
2018-08-10T10:22:33.764Z,6.70
2018-08-10T10:23:33.759Z,6.40
2018-08-10T10:24:33.746Z,7.80
2018-08-10T10:25:33.750Z,5.60
2018-08-10T10:26:33.733Z,4.90
2018-08-10T10:27:33.725Z,4.90
2018-08-10T10:28:33.718Z,5.20
2018-08-10T10:29:33.714Z,5.00
2018-08-10T10:30:33.700Z,4.00
2018-08-10T10:31:33.695Z,4.90
2018-08-10T10:32:33.699Z,5.30
2018-08-10T10:33:33.677Z,5.60
2018-08-10T10:34:33.674Z,5.00
2018-08-10T10:35:33.666Z,4.00
2018-08-10T10:36:33.657Z,4.20
2018-08-10T10:37:33.646Z,5.70
2018-08-10T10:38:33.641Z,6.20
2018-08-10T10:39:33.641Z,5.70
2018-08-10T10:40:33.631Z,5.90
2018-08-10T10:41:33.696Z,5.90
2018-08-10T10:42:33.614Z,7.40
2018-08-10T10:43:33.604Z,6.70
2018-08-10T10:44:33.590Z,5.90
2018-08-10T10:45:33.591Z,5.40
2018-08-10T10:46:33.582Z,7.20
2018-08-10T10:47:33.565Z,7.80
2018-08-10T10:48:33.557Z,7.30
2018-08-10T10:49:33.554Z,7.70
2018-08-10T10:50:33.547Z,5.70
2018-08-10T10:51:33.554Z,7.30
2018-08-10T10:52:33.530Z,4.50
2018-08-10T10:53:33.521Z,7.00
2018-08-10T10:54:33.509Z,8.40
2018-08-10T10:55:33.566Z,3.90
2018-08-10T10:56:33.567Z,4.10
2018-08-10T10:57:33.489Z,4.20
2018-08-10T10:58:33.481Z,5.30
2018-08-10T10:59:33.472Z,6.70
2018-08-10T11:00:33.462Z,4.50
2018-08-10T11:01:33.462Z,4.50
2018-08-10T11:02:33.449Z,5.90
2018-08-10T11:03:33.434Z,5.70
2018-08-10T11:04:33.430Z,7.20
2018-08-10T11:05:33.420Z,6.80
2018-08-10T11:06:33.425Z,6.00
2018-08-10T11:07:33.408Z,3.60
2018-08-10T11:08:33.393Z,7.00
2018-08-10T11:09:33.387Z,4.80
2018-08-10T11:10:33.380Z,5.60
2018-08-10T11:11:33.380Z,5.00
2018-08-10T11:12:33.364Z,4.80
2018-08-10T11:13:33.359Z,4.80
2018-08-10T11:14:33.352Z,4.80
2018-08-10T11:15:33.342Z,6.30
2018-08-10T11:16:33.336Z,3.60
2018-08-10T11:17:33.325Z,4.10
2018-08-10T11:18:33.320Z,5.70
2018-08-10T11:19:33.317Z,3.50
2018-08-10T11:20:33.302Z,4.40
2018-08-10T11:21:33.294Z,3.50
2018-08-10T11:22:33.293Z,5.10
2018-08-10T11:23:33.287Z,5.40
2018-08-10T11:24:33.275Z,3.80
2018-08-10T11:25:33.343Z,3.50
2018-08-10T11:26:33.258Z,3.30
2018-08-10T11:27:33.248Z,4.60
2018-08-10T11:28:33.242Z,4.60
2018-08-10T11:29:33.237Z,5.20
2018-08-10T11:30:33.227Z,6.80
2018-08-10T11:31:33.222Z,5.50
2018-08-10T11:32:33.214Z,5.70
2018-08-10T11:33:33.204Z,4.70
2018-08-10T11:34:33.196Z,4.60
2018-08-10T11:35:33.190Z,4.90
2018-08-10T11:36:33.188Z,5.00
2018-08-10T11:37:33.177Z,4.30
2018-08-10T11:38:33.165Z,5.80
2018-08-10T11:39:33.158Z,2.60
2018-08-10T11:40:33.152Z,4.00
2018-08-10T11:41:33.151Z,7.30
2018-08-10T11:42:33.140Z,3.40
2018-08-10T11:43:33.130Z,3.20
2018-08-10T11:44:33.125Z,3.10
2018-08-10T11:45:33.114Z,4.90
2018-08-10T11:46:33.110Z,4.40
2018-08-10T11:47:33.099Z,4.20
2018-08-10T11:48:33.094Z,4.40
2018-08-10T11:49:33.084Z,4.30
2018-08-10T11:50:33.110Z,4.60
2018-08-10T11:51:33.069Z,4.10
2018-08-10T11:52:33.118Z,7.20
2018-08-10T11:53:33.054Z,7.00
2018-08-10T11:54:33.049Z,4.50
2018-08-10T11:55:33.039Z,3.90
2018-08-10T11:56:33.035Z,5.80
2018-08-10T11:57:33.060Z,4.70
2018-08-10T11:58:33.021Z,3.90
2018-08-10T11:59:33.009Z,5.10
2018-08-10T12:00:33.005Z,3.00
2018-08-10T12:01:32.996Z,3.70
2018-08-10T12:02:32.995Z,6.00
2018-08-10T12:03:32.983Z,3.00
2018-08-10T12:04:32.980Z,4.90
2018-08-10T12:05:32.972Z,4.30
2018-08-10T12:06:32.956Z,3.90
2018-08-10T12:07:32.947Z,8.20
2018-08-10T12:08:32.945Z,4.90
2018-08-10T12:09:32.934Z,4.80
2018-08-10T12:10:32.927Z,4.60
2018-08-10T12:11:32.915Z,6.30
2018-08-10T12:12:32.925Z,4.50
2018-08-10T12:13:32.904Z,9.40
2018-08-10T12:14:32.898Z,5.80
2018-08-10T12:15:32.885Z,4.60
2018-08-10T12:16:32.879Z,6.40
2018-08-10T12:17:32.876Z,8.20
2018-08-10T12:18:32.866Z,4.80
2018-08-10T12:19:32.862Z,3.50
2018-08-10T12:20:32.858Z,7.20
2018-08-10T12:21:32.842Z,5.60
2018-08-10T12:22:32.832Z,4.20
2018-08-10T12:23:32.831Z,4.90
2018-08-10T12:24:32.858Z,4.10
2018-08-10T12:25:32.812Z,3.30
2018-08-10T12:26:32.805Z,3.40
2018-08-10T12:27:32.796Z,2.70
2018-08-10T12:28:32.800Z,5.70
2018-08-10T12:29:32.781Z,3.90
2018-08-10T12:30:32.774Z,2.40
2018-08-10T12:31:32.770Z,3.20
2018-08-10T12:32:32.771Z,4.70
2018-08-10T12:33:32.751Z,5.00
2018-08-10T12:34:32.745Z,4.70
2018-08-10T12:35:32.737Z,4.90
2018-08-10T12:36:32.733Z,4.20
2018-08-10T12:37:32.723Z,4.50
2018-08-10T12:38:32.720Z,3.70
2018-08-10T12:39:32.718Z,6.50
2018-08-10T12:40:32.705Z,7.20
2018-08-10T12:41:32.698Z,5.50
2018-08-10T12:42:32.686Z,5.90
2018-08-10T12:43:32.679Z,5.40
2018-08-10T12:44:32.676Z,5.40
2018-08-10T12:45:32.665Z,5.80
2018-08-10T12:46:32.679Z,3.30
2018-08-10T12:47:32.652Z,3.30
2018-08-10T12:48:32.646Z,3.80
2018-08-10T12:49:32.638Z,4.90
2018-08-10T12:50:32.651Z,3.00
2018-08-10T12:51:32.622Z,3.80
2018-08-10T12:52:32.617Z,3.80
2018-08-10T12:53:32.614Z,5.50
2018-08-10T12:54:32.601Z,3.60
2018-08-10T12:55:32.596Z,2.70
2018-08-10T12:56:32.587Z,3.90
2018-08-10T12:57:32.586Z,5.30
2018-08-10T12:58:32.570Z,4.10
2018-08-10T12:59:32.562Z,3.20
2018-08-10T13:00:32.554Z,4.70
2018-08-10T13:01:32.548Z,2.90
2018-08-10T13:02:32.558Z,7.00
2018-08-10T13:03:32.538Z,5.00
2018-08-10T13:04:32.525Z,3.10
2018-08-10T13:05:32.519Z,3.50
2018-08-10T13:06:32.516Z,2.30
2018-08-10T13:07:32.503Z,5.10
2018-08-10T13:08:32.495Z,3.20
2018-08-10T13:09:32.489Z,3.40
2018-08-10T13:10:32.516Z,4.50
2018-08-10T13:11:32.509Z,5.40
2018-08-10T13:12:32.477Z,5.30
2018-08-10T13:13:32.454Z,3.10
2018-08-10T13:14:32.447Z,6.60
2018-08-10T13:15:32.442Z,4.60
2018-08-10T13:16:32.432Z,5.20
2018-08-10T13:17:32.428Z,4.40
2018-08-10T13:18:32.503Z,3.90